sensor_id;sensor_type;location;lat;lon;timestamp;P1;durP1;ratioP1;P2;durP2;ratioP2
5465;SDS011;2755;50.728;7.108;2023-12-29T00:00:06;137.07;;;67.57;;
5465;SDS011;2755;50.728;7.108;2023-12-29T00:02:33;135.97;;;64.77;;
5465;SDS011;2755;50.728;7.108;2023-12-29T00:04:59;136.83;;;65.97;;
5465;SDS011;2755;50.728;7.108;2023-12-29T00:07:25;137.43;;;68.07;;
5465;SDS011;2755;50.728;7.108;2023-12-29T00:09:50;141.57;;;73.13;;
5465;SDS011;2755;50.728;7.108;2023-12-29T00:12:16;139.53;;;70.07;;
5465;SDS011;2755;50.728;7.108;2023-12-29T00:14:41;139.67;;;70.47;;
5465;SDS011;2755;50.728;7.108;2023-12-29T00:17:08;136.90;;;65.80;;
5465;SDS011;2755;50.728;7.108;2023-12-29T00:19:34;141.27;;;73.77;;
5465;SDS011;2755;50.728;7.108;2023-12-29T00:22:00;138.00;;;69.17;;
5465;SDS011;2755;50.728;7.108;2023-12-29T00:24:28;137.70;;;67.23;;
5465;SDS011;2755;50.728;7.108;2023-12-29T00:26:54;140.30;;;71.33;;
5465;SDS011;2755;50.728;7.108;2023-12-29T00:29:19;139.83;;;70.70;;
5465;SDS011;2755;50.728;7.108;2023-12-29T00:31:45;138.93;;;68.60;;
5465;SDS011;2755;50.728;7.108;2023-12-29T00:34:11;136.53;;;64.83;;
5465;SDS011;2755;50.728;7.108;2023-12-29T00:36:36;139.67;;;69.83;;
5465;SDS011;2755;50.728;7.108;2023-12-29T00:39:02;140.50;;;70.80;;
5465;SDS011;2755;50.728;7.108;2023-12-29T00:41:28;139.37;;;70.43;;
5465;SDS011;2755;50.728;7.108;2023-12-29T00:43:54;136.37;;;62.13;;
5465;SDS011;2755;50.728;7.108;2023-12-29T00:46:20;138.70;;;68.97;;
5465;SDS011;2755;50.728;7.108;2023-12-29T00:48:46;140.90;;;72.50;;
5465;SDS011;2755;50.728;7.108;2023-12-29T00:51:11;139.27;;;72.10;;
5465;SDS011;2755;50.728;7.108;2023-12-29T00:53:37;139.67;;;67.27;;
5465;SDS011;2755;50.728;7.108;2023-12-29T00:56:03;140.07;;;69.87;;
5465;SDS011;2755;50.728;7.108;2023-12-29T00:58:35;138.93;;;69.50;;
5465;SDS011;2755;50.728;7.108;2023-12-29T01:01:01;142.00;;;74.20;;
5465;SDS011;2755;50.728;7.108;2023-12-29T01:03:26;139.00;;;70.07;;
5465;SDS011;2755;50.728;7.108;2023-12-29T01:05:52;140.17;;;71.47;;
5465;SDS011;2755;50.728;7.108;2023-12-29T01:08:17;140.20;;;67.00;;
5465;SDS011;2755;50.728;7.108;2023-12-29T01:10:43;138.33;;;68.57;;
5465;SDS011;2755;50.728;7.108;2023-12-29T01:13:08;138.87;;;69.97;;
5465;SDS011;2755;50.728;7.108;2023-12-29T01:15:34;140.80;;;72.30;;
5465;SDS011;2755;50.728;7.108;2023-12-29T01:17:59;138.27;;;67.77;;
5465;SDS011;2755;50.728;7.108;2023-12-29T01:20:25;141.77;;;73.60;;
5465;SDS011;2755;50.728;7.108;2023-12-29T01:22:51;141.53;;;71.73;;
5465;SDS011;2755;50.728;7.108;2023-12-29T01:25:17;140.10;;;71.17;;
5465;SDS011;2755;50.728;7.108;2023-12-29T01:27:42;136.97;;;67.33;;
5465;SDS011;2755;50.728;7.108;2023-12-29T01:30:08;139.30;;;66.97;;
5465;SDS011;2755;50.728;7.108;2023-12-29T01:32:35;139.80;;;70.00;;
5465;SDS011;2755;50.728;7.108;2023-12-29T01:35:01;136.00;;;63.53;;
5465;SDS011;2755;50.728;7.108;2023-12-29T01:37:27;138.80;;;67.47;;
5465;SDS011;2755;50.728;7.108;2023-12-29T01:39:52;141.17;;;72.63;;
5465;SDS011;2755;50.728;7.108;2023-12-29T01:42:18;138.27;;;71.23;;
5465;SDS011;2755;50.728;7.108;2023-12-29T01:44:44;137.83;;;66.93;;
5465;SDS011;2755;50.728;7.108;2023-12-29T01:47:11;136.17;;;64.37;;
5465;SDS011;2755;50.728;7.108;2023-12-29T01:49:41;138.47;;;68.50;;
5465;SDS011;2755;50.728;7.108;2023-12-29T01:52:10;140.23;;;69.10;;
5465;SDS011;2755;50.728;7.108;2023-12-29T01:54:36;133.83;;;61.03;;
5465;SDS011;2755;50.728;7.108;2023-12-29T01:57:07;139.07;;;67.77;;
5465;SDS011;2755;50.728;7.108;2023-12-29T01:59:33;138.90;;;69.77;;
5465;SDS011;2755;50.728;7.108;2023-12-29T02:02:01;137.37;;;68.83;;
5465;SDS011;2755;50.728;7.108;2023-12-29T02:04:27;139.80;;;72.30;;
5465;SDS011;2755;50.728;7.108;2023-12-29T02:06:54;138.83;;;70.60;;
5465;SDS011;2755;50.728;7.108;2023-12-29T02:09:20;136.70;;;67.60;;
5465;SDS011;2755;50.728;7.108;2023-12-29T02:11:46;136.40;;;65.90;;
5465;SDS011;2755;50.728;7.108;2023-12-29T02:14:13;138.17;;;70.87;;
5465;SDS011;2755;50.728;7.108;2023-12-29T02:16:45;141.13;;;74.03;;
5465;SDS011;2755;50.728;7.108;2023-12-29T02:19:22;138.03;;;67.40;;
5465;SDS011;2755;50.728;7.108;2023-12-29T02:21:52;137.03;;;67.90;;
5465;SDS011;2755;50.728;7.108;2023-12-29T02:24:18;139.50;;;70.27;;
5465;SDS011;2755;50.728;7.108;2023-12-29T02:26:44;139.13;;;72.07;;
5465;SDS011;2755;50.728;7.108;2023-12-29T02:29:15;134.77;;;65.17;;
5465;SDS011;2755;50.728;7.108;2023-12-29T02:31:44;138.50;;;68.97;;
5465;SDS011;2755;50.728;7.108;2023-12-29T02:34:15;137.77;;;67.87;;
5465;SDS011;2755;50.728;7.108;2023-12-29T02:36:43;138.53;;;69.37;;
5465;SDS011;2755;50.728;7.108;2023-12-29T02:39:11;140.67;;;72.60;;
5465;SDS011;2755;50.728;7.108;2023-12-29T02:41:37;136.37;;;63.47;;
5465;SDS011;2755;50.728;7.108;2023-12-29T02:44:03;135.83;;;62.67;;
5465;SDS011;2755;50.728;7.108;2023-12-29T02:46:29;138.27;;;69.33;;
5465;SDS011;2755;50.728;7.108;2023-12-29T02:48:54;137.13;;;67.23;;
5465;SDS011;2755;50.728;7.108;2023-12-29T02:51:20;135.53;;;65.67;;
5465;SDS011;2755;50.728;7.108;2023-12-29T02:53:46;140.10;;;70.83;;
5465;SDS011;2755;50.728;7.108;2023-12-29T02:56:13;133.03;;;59.03;;
5465;SDS011;2755;50.728;7.108;2023-12-29T02:58:39;139.47;;;71.87;;
5465;SDS011;2755;50.728;7.108;2023-12-29T03:01:05;137.90;;;68.60;;
5465;SDS011;2755;50.728;7.108;2023-12-29T03:03:31;139.00;;;69.03;;
5465;SDS011;2755;50.728;7.108;2023-12-29T03:05:57;135.63;;;64.13;;
5465;SDS011;2755;50.728;7.108;2023-12-29T03:08:22;139.77;;;71.40;;
5465;SDS011;2755;50.728;7.108;2023-12-29T03:10:48;136.43;;;65.97;;
5465;SDS011;2755;50.728;7.108;2023-12-29T03:13:14;136.63;;;68.13;;
5465;SDS011;2755;50.728;7.108;2023-12-29T03:15:40;137.47;;;66.70;;
5465;SDS011;2755;50.728;7.108;2023-12-29T03:18:05;139.43;;;69.23;;
5465;SDS011;2755;50.728;7.108;2023-12-29T03:20:31;136.63;;;66.80;;
5465;SDS011;2755;50.728;7.108;2023-12-29T03:22:56;135.80;;;64.83;;
5465;SDS011;2755;50.728;7.108;2023-12-29T03:25:22;137.60;;;67.87;;
5465;SDS011;2755;50.728;7.108;2023-12-29T03:27:48;138.47;;;67.60;;
5465;SDS011;2755;50.728;7.108;2023-12-29T03:30:13;138.53;;;68.47;;
5465;SDS011;2755;50.728;7.108;2023-12-29T03:32:39;138.93;;;70.87;;
5465;SDS011;2755;50.728;7.108;2023-12-29T03:35:05;136.70;;;64.40;;
5465;SDS011;2755;50.728;7.108;2023-12-29T03:37:31;138.27;;;66.67;;
5465;SDS011;2755;50.728;7.108;2023-12-29T03:39:57;137.30;;;66.53;;
5465;SDS011;2755;50.728;7.108;2023-12-29T03:42:23;139.67;;;71.77;;
5465;SDS011;2755;50.728;7.108;2023-12-29T03:44:49;137.73;;;66.50;;
5465;SDS011;2755;50.728;7.108;2023-12-29T03:47:15;135.47;;;65.63;;
5465;SDS011;2755;50.728;7.108;2023-12-29T03:49:41;138.27;;;68.47;;
5465;SDS011;2755;50.728;7.108;2023-12-29T03:52:06;138.00;;;69.07;;
5465;SDS011;2755;50.728;7.108;2023-12-29T03:54:32;137.07;;;66.33;;
5465;SDS011;2755;50.728;7.108;2023-12-29T03:56:58;140.20;;;72.47;;
5465;SDS011;2755;50.728;7.108;2023-12-29T03:59:23;139.17;;;69.87;;
5465;SDS011;2755;50.728;7.108;2023-12-29T04:01:49;137.97;;;69.73;;
5465;SDS011;2755;50.728;7.108;2023-12-29T04:04:14;140.40;;;73.50;;
5465;SDS011;2755;50.728;7.108;2023-12-29T04:06:40;138.87;;;70.40;;
5465;SDS011;2755;50.728;7.108;2023-12-29T04:09:05;135.83;;;65.23;;
5465;SDS011;2755;50.728;7.108;2023-12-29T04:11:31;139.70;;;70.97;;
5465;SDS011;2755;50.728;7.108;2023-12-29T04:13:57;136.03;;;66.40;;
5465;SDS011;2755;50.728;7.108;2023-12-29T04:16:22;138.40;;;70.03;;
5465;SDS011;2755;50.728;7.108;2023-12-29T04:18:48;135.70;;;64.63;;
5465;SDS011;2755;50.728;7.108;2023-12-29T04:21:14;137.97;;;67.23;;
5465;SDS011;2755;50.728;7.108;2023-12-29T04:23:40;135.27;;;64.30;;
5465;SDS011;2755;50.728;7.108;2023-12-29T04:26:06;138.47;;;71.47;;
5465;SDS011;2755;50.728;7.108;2023-12-29T04:28:32;138.63;;;72.13;;
5465;SDS011;2755;50.728;7.108;2023-12-29T04:30:58;138.33;;;68.80;;
5465;SDS011;2755;50.728;7.108;2023-12-29T04:33:24;136.13;;;67.00;;
5465;SDS011;2755;50.728;7.108;2023-12-29T04:35:49;135.33;;;64.20;;
5465;SDS011;2755;50.728;7.108;2023-12-29T04:38:15;136.77;;;67.50;;
5465;SDS011;2755;50.728;7.108;2023-12-29T04:40:43;137.77;;;67.67;;
5465;SDS011;2755;50.728;7.108;2023-12-29T04:43:08;138.30;;;67.67;;
5465;SDS011;2755;50.728;7.108;2023-12-29T04:45:34;138.40;;;71.23;;
5465;SDS011;2755;50.728;7.108;2023-12-29T04:48:00;137.50;;;67.90;;
5465;SDS011;2755;50.728;7.108;2023-12-29T04:50:25;136.57;;;66.77;;
5465;SDS011;2755;50.728;7.108;2023-12-29T04:52:51;139.10;;;68.57;;
5465;SDS011;2755;50.728;7.108;2023-12-29T04:55:17;138.73;;;68.93;;
5465;SDS011;2755;50.728;7.108;2023-12-29T04:57:42;135.53;;;62.17;;
5465;SDS011;2755;50.728;7.108;2023-12-29T05:00:08;136.50;;;65.60;;
5465;SDS011;2755;50.728;7.108;2023-12-29T05:02:34;140.17;;;68.67;;
5465;SDS011;2755;50.728;7.108;2023-12-29T05:05:00;135.07;;;62.93;;
5465;SDS011;2755;50.728;7.108;2023-12-29T05:07:26;136.47;;;66.77;;
5465;SDS011;2755;50.728;7.108;2023-12-29T05:09:52;137.40;;;66.80;;
5465;SDS011;2755;50.728;7.108;2023-12-29T05:12:17;139.10;;;70.17;;
5465;SDS011;2755;50.728;7.108;2023-12-29T05:14:43;138.37;;;71.03;;
5465;SDS011;2755;50.728;7.108;2023-12-29T05:17:09;139.83;;;70.53;;
5465;SDS011;2755;50.728;7.108;2023-12-29T05:19:35;138.97;;;71.00;;
5465;SDS011;2755;50.728;7.108;2023-12-29T05:22:01;137.50;;;68.20;;
5465;SDS011;2755;50.728;7.108;2023-12-29T05:24:26;139.47;;;70.07;;
5465;SDS011;2755;50.728;7.108;2023-12-29T05:26:52;142.97;;;78.13;;
5465;SDS011;2755;50.728;7.108;2023-12-29T05:29:18;139.97;;;71.87;;
5465;SDS011;2755;50.728;7.108;2023-12-29T05:31:43;140.60;;;73.20;;
5465;SDS011;2755;50.728;7.108;2023-12-29T05:34:09;137.37;;;66.57;;
5465;SDS011;2755;50.728;7.108;2023-12-29T05:36:35;141.07;;;73.50;;
5465;SDS011;2755;50.728;7.108;2023-12-29T05:39:01;139.77;;;71.57;;
5465;SDS011;2755;50.728;7.108;2023-12-29T05:41:27;139.93;;;72.50;;
5465;SDS011;2755;50.728;7.108;2023-12-29T05:43:53;140.40;;;74.10;;
5465;SDS011;2755;50.728;7.108;2023-12-29T05:46:19;139.63;;;71.90;;
5465;SDS011;2755;50.728;7.108;2023-12-29T05:48:46;141.87;;;76.97;;
5465;SDS011;2755;50.728;7.108;2023-12-29T05:51:12;144.97;;;79.17;;
5465;SDS011;2755;50.728;7.108;2023-12-29T05:53:41;141.27;;;74.30;;
5465;SDS011;2755;50.728;7.108;2023-12-29T05:56:07;140.00;;;73.87;;
5465;SDS011;2755;50.728;7.108;2023-12-29T05:58:34;137.93;;;71.87;;
5465;SDS011;2755;50.728;7.108;2023-12-29T06:01:00;137.63;;;68.90;;
5465;SDS011;2755;50.728;7.108;2023-12-29T06:03:27;138.50;;;69.60;;
5465;SDS011;2755;50.728;7.108;2023-12-29T06:05:53;140.97;;;74.97;;
5465;SDS011;2755;50.728;7.108;2023-12-29T06:08:19;138.47;;;67.47;;
5465;SDS011;2755;50.728;7.108;2023-12-29T06:10:45;138.57;;;70.17;;
5465;SDS011;2755;50.728;7.108;2023-12-29T06:13:11;139.30;;;70.97;;
5465;SDS011;2755;50.728;7.108;2023-12-29T06:15:37;137.97;;;71.87;;
5465;SDS011;2755;50.728;7.108;2023-12-29T06:18:03;138.37;;;71.80;;
5465;SDS011;2755;50.728;7.108;2023-12-29T06:20:30;141.07;;;73.50;;
5465;SDS011;2755;50.728;7.108;2023-12-29T06:22:56;136.93;;;67.87;;
5465;SDS011;2755;50.728;7.108;2023-12-29T06:25:22;136.03;;;65.20;;
5465;SDS011;2755;50.728;7.108;2023-12-29T06:27:47;138.53;;;70.23;;
5465;SDS011;2755;50.728;7.108;2023-12-29T06:30:13;140.23;;;72.60;;
5465;SDS011;2755;50.728;7.108;2023-12-29T06:32:40;138.47;;;69.67;;
5465;SDS011;2755;50.728;7.108;2023-12-29T06:35:06;137.83;;;68.93;;
5465;SDS011;2755;50.728;7.108;2023-12-29T06:37:32;136.77;;;66.17;;
5465;SDS011;2755;50.728;7.108;2023-12-29T06:39:58;137.07;;;67.93;;
5465;SDS011;2755;50.728;7.108;2023-12-29T06:42:24;138.23;;;71.93;;
5465;SDS011;2755;50.728;7.108;2023-12-29T06:44:50;136.07;;;65.97;;
5465;SDS011;2755;50.728;7.108;2023-12-29T06:47:15;135.17;;;65.10;;
5465;SDS011;2755;50.728;7.108;2023-12-29T06:49:47;137.33;;;68.17;;
5465;SDS011;2755;50.728;7.108;2023-12-29T06:52:13;136.27;;;65.40;;
5465;SDS011;2755;50.728;7.108;2023-12-29T06:54:39;139.90;;;70.70;;
5465;SDS011;2755;50.728;7.108;2023-12-29T06:57:04;136.17;;;66.13;;
5465;SDS011;2755;50.728;7.108;2023-12-29T06:59:30;139.27;;;69.87;;
5465;SDS011;2755;50.728;7.108;2023-12-29T07:01:56;139.40;;;68.90;;
5465;SDS011;2755;50.728;7.108;2023-12-29T07:04:26;140.17;;;70.90;;
5465;SDS011;2755;50.728;7.108;2023-12-29T07:06:52;137.47;;;68.00;;
5465;SDS011;2755;50.728;7.108;2023-12-29T07:09:21;139.07;;;71.17;;
5465;SDS011;2755;50.728;7.108;2023-12-29T07:11:48;140.13;;;71.17;;
5465;SDS011;2755;50.728;7.108;2023-12-29T07:14:18;139.37;;;70.03;;
5465;SDS011;2755;50.728;7.108;2023-12-29T07:16:45;137.87;;;68.27;;
5465;SDS011;2755;50.728;7.108;2023-12-29T07:19:11;136.87;;;67.30;;
5465;SDS011;2755;50.728;7.108;2023-12-29T07:21:38;136.37;;;65.90;;
5465;SDS011;2755;50.728;7.108;2023-12-29T07:24:04;136.10;;;65.90;;
5465;SDS011;2755;50.728;7.108;2023-12-29T07:26:32;138.90;;;70.30;;
5465;SDS011;2755;50.728;7.108;2023-12-29T07:28:59;139.03;;;68.27;;
5465;SDS011;2755;50.728;7.108;2023-12-29T07:31:24;138.67;;;69.07;;
5465;SDS011;2755;50.728;7.108;2023-12-29T07:33:56;137.60;;;70.73;;
5465;SDS011;2755;50.728;7.108;2023-12-29T07:36:21;138.63;;;69.40;;
5465;SDS011;2755;50.728;7.108;2023-12-29T07:38:47;140.57;;;72.47;;
5465;SDS011;2755;50.728;7.108;2023-12-29T07:41:13;141.47;;;74.77;;
5465;SDS011;2755;50.728;7.108;2023-12-29T07:43:39;138.20;;;69.50;;
5465;SDS011;2755;50.728;7.108;2023-12-29T07:46:05;137.87;;;67.67;;
5465;SDS011;2755;50.728;7.108;2023-12-29T07:48:31;139.67;;;69.57;;
5465;SDS011;2755;50.728;7.108;2023-12-29T07:50:58;136.97;;;68.70;;
5465;SDS011;2755;50.728;7.108;2023-12-29T07:53:29;140.60;;;72.83;;
5465;SDS011;2755;50.728;7.108;2023-12-29T07:55:54;140.23;;;72.63;;
5465;SDS011;2755;50.728;7.108;2023-12-29T07:58:20;139.27;;;71.27;;
5465;SDS011;2755;50.728;7.108;2023-12-29T08:00:46;139.67;;;71.80;;
5465;SDS011;2755;50.728;7.108;2023-12-29T08:03:12;138.67;;;69.07;;
5465;SDS011;2755;50.728;7.108;2023-12-29T08:05:38;141.57;;;75.53;;
5465;SDS011;2755;50.728;7.108;2023-12-29T08:08:04;139.33;;;72.00;;
5465;SDS011;2755;50.728;7.108;2023-12-29T08:10:30;138.87;;;70.60;;
5465;SDS011;2755;50.728;7.108;2023-12-29T08:12:57;138.30;;;69.30;;
5465;SDS011;2755;50.728;7.108;2023-12-29T08:15:23;138.70;;;69.40;;
5465;SDS011;2755;50.728;7.108;2023-12-29T08:17:56;136.70;;;67.37;;
5465;SDS011;2755;50.728;7.108;2023-12-29T08:20:21;139.43;;;72.57;;
5465;SDS011;2755;50.728;7.108;2023-12-29T08:22:49;137.67;;;69.87;;
5465;SDS011;2755;50.728;7.108;2023-12-29T08:25:15;140.07;;;73.53;;
5465;SDS011;2755;50.728;7.108;2023-12-29T08:27:40;139.13;;;69.93;;
5465;SDS011;2755;50.728;7.108;2023-12-29T08:30:06;136.27;;;67.13;;
5465;SDS011;2755;50.728;7.108;2023-12-29T08:32:33;139.03;;;71.90;;
5465;SDS011;2755;50.728;7.108;2023-12-29T08:34:58;141.07;;;74.43;;
5465;SDS011;2755;50.728;7.108;2023-12-29T08:37:24;137.57;;;71.57;;
5465;SDS011;2755;50.728;7.108;2023-12-29T08:39:50;139.67;;;73.47;;
5465;SDS011;2755;50.728;7.108;2023-12-29T08:42:16;138.57;;;70.07;;
5465;SDS011;2755;50.728;7.108;2023-12-29T08:44:42;138.93;;;72.07;;
5465;SDS011;2755;50.728;7.108;2023-12-29T08:47:08;142.93;;;80.23;;
5465;SDS011;2755;50.728;7.108;2023-12-29T08:49:34;141.87;;;77.73;;
5465;SDS011;2755;50.728;7.108;2023-12-29T08:52:01;142.17;;;78.43;;
5465;SDS011;2755;50.728;7.108;2023-12-29T08:54:27;144.27;;;81.40;;
5465;SDS011;2755;50.728;7.108;2023-12-29T08:56:53;141.97;;;76.60;;
5465;SDS011;2755;50.728;7.108;2023-12-29T08:59:18;140.97;;;75.57;;
5465;SDS011;2755;50.728;7.108;2023-12-29T09:01:44;142.43;;;78.27;;
5465;SDS011;2755;50.728;7.108;2023-12-29T09:04:10;143.30;;;77.83;;
5465;SDS011;2755;50.728;7.108;2023-12-29T09:06:36;140.00;;;73.73;;
5465;SDS011;2755;50.728;7.108;2023-12-29T09:09:01;141.20;;;77.47;;
5465;SDS011;2755;50.728;7.108;2023-12-29T09:11:27;142.53;;;78.50;;
5465;SDS011;2755;50.728;7.108;2023-12-29T09:13:52;144.83;;;82.97;;
5465;SDS011;2755;50.728;7.108;2023-12-29T09:16:18;143.03;;;78.30;;
5465;SDS011;2755;50.728;7.108;2023-12-29T09:18:44;139.97;;;73.40;;
5465;SDS011;2755;50.728;7.108;2023-12-29T09:21:10;138.77;;;71.17;;
5465;SDS011;2755;50.728;7.108;2023-12-29T09:23:37;142.63;;;77.57;;
5465;SDS011;2755;50.728;7.108;2023-12-29T09:26:03;141.77;;;79.57;;
5465;SDS011;2755;50.728;7.108;2023-12-29T09:28:30;141.30;;;76.90;;
5465;SDS011;2755;50.728;7.108;2023-12-29T09:30:57;143.50;;;81.97;;
5465;SDS011;2755;50.728;7.108;2023-12-29T09:33:24;140.77;;;74.40;;
5465;SDS011;2755;50.728;7.108;2023-12-29T09:35:50;139.83;;;72.67;;
5465;SDS011;2755;50.728;7.108;2023-12-29T09:38:16;141.23;;;75.60;;
5465;SDS011;2755;50.728;7.108;2023-12-29T09:40:49;141.90;;;74.83;;
5465;SDS011;2755;50.728;7.108;2023-12-29T09:43:17;137.83;;;68.87;;
5465;SDS011;2755;50.728;7.108;2023-12-29T09:45:44;138.37;;;68.70;;
5465;SDS011;2755;50.728;7.108;2023-12-29T09:48:14;137.27;;;67.53;;
5465;SDS011;2755;50.728;7.108;2023-12-29T09:50:44;139.23;;;70.03;;
5465;SDS011;2755;50.728;7.108;2023-12-29T09:53:10;140.57;;;72.33;;
5465;SDS011;2755;50.728;7.108;2023-12-29T09:55:37;140.47;;;72.07;;
5465;SDS011;2755;50.728;7.108;2023-12-29T09:58:04;142.87;;;78.10;;
5465;SDS011;2755;50.728;7.108;2023-12-29T10:00:32;146.33;;;85.23;;
5465;SDS011;2755;50.728;7.108;2023-12-29T10:02:59;146.40;;;84.40;;
5465;SDS011;2755;50.728;7.108;2023-12-29T10:05:25;149.37;;;88.70;;
5465;SDS011;2755;50.728;7.108;2023-12-29T10:07:52;150.53;;;92.53;;
5465;SDS011;2755;50.728;7.108;2023-12-29T10:10:18;153.03;;;96.57;;
5465;SDS011;2755;50.728;7.108;2023-12-29T10:12:48;148.17;;;86.83;;
5465;SDS011;2755;50.728;7.108;2023-12-29T10:15:15;147.27;;;87.17;;
5465;SDS011;2755;50.728;7.108;2023-12-29T10:25:27;149.57;;;90.67;;
5465;SDS011;2755;50.728;7.108;2023-12-29T10:27:53;152.33;;;95.00;;
5465;SDS011;2755;50.728;7.108;2023-12-29T10:30:20;149.93;;;89.63;;
5465;SDS011;2755;50.728;7.108;2023-12-29T10:32:50;151.17;;;90.07;;
5465;SDS011;2755;50.728;7.108;2023-12-29T10:35:17;148.67;;;90.80;;
5465;SDS011;2755;50.728;7.108;2023-12-29T10:37:43;150.53;;;91.53;;
5465;SDS011;2755;50.728;7.108;2023-12-29T10:40:08;149.23;;;90.27;;
5465;SDS011;2755;50.728;7.108;2023-12-29T10:42:34;148.00;;;86.40;;
5465;SDS011;2755;50.728;7.108;2023-12-29T10:45:06;148.90;;;88.37;;
5465;SDS011;2755;50.728;7.108;2023-12-29T10:47:34;149.07;;;88.10;;
5465;SDS011;2755;50.728;7.108;2023-12-29T10:50:04;146.57;;;85.87;;
5465;SDS011;2755;50.728;7.108;2023-12-29T10:52:31;149.73;;;88.43;;
5465;SDS011;2755;50.728;7.108;2023-12-29T10:55:04;152.40;;;94.37;;
5465;SDS011;2755;50.728;7.108;2023-12-29T10:57:31;149.73;;;91.10;;
5465;SDS011;2755;50.728;7.108;2023-12-29T10:59:57;149.50;;;87.50;;
5465;SDS011;2755;50.728;7.108;2023-12-29T11:02:25;151.23;;;91.13;;
5465;SDS011;2755;50.728;7.108;2023-12-29T11:04:51;146.27;;;83.03;;
5465;SDS011;2755;50.728;7.108;2023-12-29T11:07:30;144.87;;;79.10;;
5465;SDS011;2755;50.728;7.108;2023-12-29T11:09:59;140.50;;;71.57;;
5465;SDS011;2755;50.728;7.108;2023-12-29T11:12:27;145.37;;;75.53;;
5465;SDS011;2755;50.728;7.108;2023-12-29T11:14:55;143.23;;;75.73;;
5465;SDS011;2755;50.728;7.108;2023-12-29T11:17:21;139.33;;;68.07;;
5465;SDS011;2755;50.728;7.108;2023-12-29T11:19:48;136.20;;;65.57;;
5465;SDS011;2755;50.728;7.108;2023-12-29T11:22:15;138.13;;;66.07;;
5465;SDS011;2755;50.728;7.108;2023-12-29T11:24:42;137.67;;;65.53;;
5465;SDS011;2755;50.728;7.108;2023-12-29T11:27:10;139.13;;;67.37;;
5465;SDS011;2755;50.728;7.108;2023-12-29T11:29:37;135.83;;;62.27;;
5465;SDS011;2755;50.728;7.108;2023-12-29T11:32:06;136.07;;;62.87;;
5465;SDS011;2755;50.728;7.108;2023-12-29T11:34:49;135.60;;;60.53;;
5465;SDS011;2755;50.728;7.108;2023-12-29T11:37:33;135.73;;;63.13;;
5465;SDS011;2755;50.728;7.108;2023-12-29T11:40:30;132.43;;;57.47;;
5465;SDS011;2755;50.728;7.108;2023-12-29T11:43:07;134.53;;;60.77;;
5465;SDS011;2755;50.728;7.108;2023-12-29T11:45:35;138.13;;;66.00;;
5465;SDS011;2755;50.728;7.108;2023-12-29T11:48:01;136.40;;;62.67;;
5465;SDS011;2755;50.728;7.108;2023-12-29T11:50:37;136.00;;;62.30;;
5465;SDS011;2755;50.728;7.108;2023-12-29T11:53:07;139.23;;;69.40;;
5465;SDS011;2755;50.728;7.108;2023-12-29T11:55:36;143.17;;;75.37;;
5465;SDS011;2755;50.728;7.108;2023-12-29T11:58:04;144.83;;;79.27;;
5465;SDS011;2755;50.728;7.108;2023-12-29T12:00:45;146.87;;;83.80;;
5465;SDS011;2755;50.728;7.108;2023-12-29T12:03:24;146.67;;;82.83;;
5465;SDS011;2755;50.728;7.108;2023-12-29T12:05:52;144.67;;;78.30;;
5465;SDS011;2755;50.728;7.108;2023-12-29T12:08:28;142.57;;;74.80;;
5465;SDS011;2755;50.728;7.108;2023-12-29T12:14:01;143.67;;;77.77;;
5465;SDS011;2755;50.728;7.108;2023-12-29T12:19:08;143.30;;;75.63;;
5465;SDS011;2755;50.728;7.108;2023-12-29T12:21:33;145.30;;;79.47;;
5465;SDS011;2755;50.728;7.108;2023-12-29T12:24:01;144.57;;;80.23;;
5465;SDS011;2755;50.728;7.108;2023-12-29T12:26:31;144.30;;;78.60;;
5465;SDS011;2755;50.728;7.108;2023-12-29T12:29:00;142.33;;;75.17;;
5465;SDS011;2755;50.728;7.108;2023-12-29T12:31:26;142.57;;;76.97;;
5465;SDS011;2755;50.728;7.108;2023-12-29T12:36:25;142.93;;;75.90;;
5465;SDS011;2755;50.728;7.108;2023-12-29T12:38:54;142.80;;;74.77;;
5465;SDS011;2755;50.728;7.108;2023-12-29T12:41:24;144.43;;;79.27;;
5465;SDS011;2755;50.728;7.108;2023-12-29T12:44:10;142.97;;;75.50;;
5465;SDS011;2755;50.728;7.108;2023-12-29T12:49:13;144.57;;;78.10;;
5465;SDS011;2755;50.728;7.108;2023-12-29T12:51:40;145.10;;;80.70;;
5465;SDS011;2755;50.728;7.108;2023-12-29T12:54:06;145.07;;;79.30;;
5465;SDS011;2755;50.728;7.108;2023-12-29T12:56:32;143.60;;;77.23;;
5465;SDS011;2755;50.728;7.108;2023-12-29T12:58:58;144.97;;;80.40;;
5465;SDS011;2755;50.728;7.108;2023-12-29T13:01:27;145.40;;;81.57;;
5465;SDS011;2755;50.728;7.108;2023-12-29T13:03:54;143.00;;;77.17;;
5465;SDS011;2755;50.728;7.108;2023-12-29T13:06:21;143.17;;;76.07;;
5465;SDS011;2755;50.728;7.108;2023-12-29T13:08:48;140.93;;;72.20;;
5465;SDS011;2755;50.728;7.108;2023-12-29T13:11:18;145.80;;;82.03;;
5465;SDS011;2755;50.728;7.108;2023-12-29T13:13:47;143.10;;;77.67;;
5465;SDS011;2755;50.728;7.108;2023-12-29T13:16:13;143.60;;;78.27;;
5465;SDS011;2755;50.728;7.108;2023-12-29T13:18:41;144.23;;;77.47;;
5465;SDS011;2755;50.728;7.108;2023-12-29T13:21:07;142.53;;;76.00;;
5465;SDS011;2755;50.728;7.108;2023-12-29T13:23:34;146.97;;;74.30;;
5465;SDS011;2755;50.728;7.108;2023-12-29T13:26:07;141.40;;;73.30;;
5465;SDS011;2755;50.728;7.108;2023-12-29T13:28:35;141.90;;;74.67;;
5465;SDS011;2755;50.728;7.108;2023-12-29T13:31:01;139.90;;;70.93;;
5465;SDS011;2755;50.728;7.108;2023-12-29T13:36:04;139.73;;;68.90;;
5465;SDS011;2755;50.728;7.108;2023-12-29T13:38:35;137.67;;;65.20;;
5465;SDS011;2755;50.728;7.108;2023-12-29T13:41:11;138.03;;;66.47;;
5465;SDS011;2755;50.728;7.108;2023-12-29T13:43:39;138.77;;;68.70;;
5465;SDS011;2755;50.728;7.108;2023-12-29T13:46:08;138.73;;;68.20;;
5465;SDS011;2755;50.728;7.108;2023-12-29T13:48:36;137.23;;;64.73;;
5465;SDS011;2755;50.728;7.108;2023-12-29T13:51:03;141.53;;;73.97;;
5465;SDS011;2755;50.728;7.108;2023-12-29T13:53:29;140.70;;;71.80;;
5465;SDS011;2755;50.728;7.108;2023-12-29T13:56:05;140.27;;;71.90;;
5465;SDS011;2755;50.728;7.108;2023-12-29T13:58:34;140.83;;;72.97;;
5465;SDS011;2755;50.728;7.108;2023-12-29T14:01:00;140.17;;;70.13;;
5465;SDS011;2755;50.728;7.108;2023-12-29T14:03:31;138.40;;;69.67;;
5465;SDS011;2755;50.728;7.108;2023-12-29T14:06:06;142.43;;;76.73;;
5465;SDS011;2755;50.728;7.108;2023-12-29T14:08:39;142.97;;;78.53;;
5465;SDS011;2755;50.728;7.108;2023-12-29T14:11:09;145.07;;;80.73;;
5465;SDS011;2755;50.728;7.108;2023-12-29T14:13:35;151.23;;;91.13;;
5465;SDS011;2755;50.728;7.108;2023-12-29T14:16:09;153.07;;;96.47;;
5465;SDS011;2755;50.728;7.108;2023-12-29T14:26:40;148.63;;;88.50;;
5465;SDS011;2755;50.728;7.108;2023-12-29T14:29:18;149.10;;;88.20;;
5465;SDS011;2755;50.728;7.108;2023-12-29T14:31:45;147.43;;;85.53;;
5465;SDS011;2755;50.728;7.108;2023-12-29T14:34:11;143.30;;;78.03;;
5465;SDS011;2755;50.728;7.108;2023-12-29T14:36:40;144.30;;;80.80;;
5465;SDS011;2755;50.728;7.108;2023-12-29T14:39:06;144.00;;;79.37;;
5465;SDS011;2755;50.728;7.108;2023-12-29T14:41:33;144.03;;;80.27;;
5465;SDS011;2755;50.728;7.108;2023-12-29T14:43:59;144.13;;;79.67;;
5465;SDS011;2755;50.728;7.108;2023-12-29T14:46:24;139.87;;;71.30;;
5465;SDS011;2755;50.728;7.108;2023-12-29T14:48:51;140.87;;;73.70;;
5465;SDS011;2755;50.728;7.108;2023-12-29T14:51:17;142.83;;;76.37;;
5465;SDS011;2755;50.728;7.108;2023-12-29T14:53:47;139.90;;;72.07;;
5465;SDS011;2755;50.728;7.108;2023-12-29T14:56:14;140.47;;;72.23;;
5465;SDS011;2755;50.728;7.108;2023-12-29T14:58:40;139.83;;;72.53;;
5465;SDS011;2755;50.728;7.108;2023-12-29T15:01:07;138.57;;;68.40;;